sensor_id;sensor_type;location;lat;lon;timestamp;P1;durP1;ratioP1;P2;durP2;ratioP2
27985;SDS011;15453;53.692;10.168;2023-05-25T00:00:31;9.98;;;4.15;;
27985;SDS011;15453;53.692;10.168;2023-05-25T00:02:57;10.88;;;4.20;;
27985;SDS011;15453;53.692;10.168;2023-05-25T00:05:23;12.93;;;4.82;;
27985;SDS011;15453;53.692;10.168;2023-05-25T00:07:51;12.20;;;3.95;;
27985;SDS011;15453;53.692;10.168;2023-05-25T00:10:16;12.70;;;4.50;;
27985;SDS011;15453;53.692;10.168;2023-05-25T00:12:41;11.82;;;3.97;;
27985;SDS011;15453;53.692;10.168;2023-05-25T00:15:07;12.48;;;4.75;;
27985;SDS011;15453;53.692;10.168;2023-05-25T00:17:32;11.00;;;4.22;;
27985;SDS011;15453;53.692;10.168;2023-05-25T00:20:00;13.15;;;4.75;;
27985;SDS011;15453;53.692;10.168;2023-05-25T00:22:34;10.60;;;4.32;;
27985;SDS011;15453;53.692;10.168;2023-05-25T00:24:59;11.75;;;4.43;;
27985;SDS011;15453;53.692;10.168;2023-05-25T00:27:25;12.45;;;4.72;;
27985;SDS011;15453;53.692;10.168;2023-05-25T00:29:50;11.55;;;5.05;;
27985;SDS011;15453;53.692;10.168;2023-05-25T00:32:15;13.73;;;4.72;;
27985;SDS011;15453;53.692;10.168;2023-05-25T00:34:40;15.90;;;5.43;;
27985;SDS011;15453;53.692;10.168;2023-05-25T00:37:06;12.63;;;5.00;;
27985;SDS011;15453;53.692;10.168;2023-05-25T00:39:31;15.35;;;5.97;;
27985;SDS011;15453;53.692;10.168;2023-05-25T00:41:56;11.80;;;5.30;;
27985;SDS011;15453;53.692;10.168;2023-05-25T00:44:22;11.05;;;5.25;;
27985;SDS011;15453;53.692;10.168;2023-05-25T00:46:49;14.43;;;5.00;;
27985;SDS011;15453;53.692;10.168;2023-05-25T00:49:16;11.60;;;5.43;;
27985;SDS011;15453;53.692;10.168;2023-05-25T00:51:43;11.60;;;5.40;;
27985;SDS011;15453;53.692;10.168;2023-05-25T00:54:11;12.02;;;5.00;;
27985;SDS011;15453;53.692;10.168;2023-05-25T00:56:38;12.35;;;5.53;;
27985;SDS011;15453;53.692;10.168;2023-05-25T00:59:05;12.32;;;4.97;;
27985;SDS011;15453;53.692;10.168;2023-05-25T01:01:32;13.07;;;5.30;;
27985;SDS011;15453;53.692;10.168;2023-05-25T01:04:03;12.75;;;5.38;;
27985;SDS011;15453;53.692;10.168;2023-05-25T01:06:31;12.38;;;5.15;;
27985;SDS011;15453;53.692;10.168;2023-05-25T01:08:58;15.10;;;5.60;;
27985;SDS011;15453;53.692;10.168;2023-05-25T01:13:56;12.93;;;5.15;;
27985;SDS011;15453;53.692;10.168;2023-05-25T01:16:23;12.45;;;5.10;;
27985;SDS011;15453;53.692;10.168;2023-05-25T01:18:49;12.27;;;5.68;;
27985;SDS011;15453;53.692;10.168;2023-05-25T01:21:32;11.73;;;5.47;;
27985;SDS011;15453;53.692;10.168;2023-05-25T01:24:11;16.48;;;5.68;;
27985;SDS011;15453;53.692;10.168;2023-05-25T01:26:47;13.38;;;5.40;;
27985;SDS011;15453;53.692;10.168;2023-05-25T01:29:22;15.82;;;6.07;;
27985;SDS011;15453;53.692;10.168;2023-05-25T01:31:50;13.38;;;5.70;;
27985;SDS011;15453;53.692;10.168;2023-05-25T01:34:17;11.93;;;5.32;;
27985;SDS011;15453;53.692;10.168;2023-05-25T01:36:44;24.73;;;6.15;;
27985;SDS011;15453;53.692;10.168;2023-05-25T01:39:09;12.35;;;5.10;;
27985;SDS011;15453;53.692;10.168;2023-05-25T01:41:36;11.13;;;5.55;;
27985;SDS011;15453;53.692;10.168;2023-05-25T01:44:01;14.77;;;5.32;;
27985;SDS011;15453;53.692;10.168;2023-05-25T01:46:35;10.68;;;5.32;;
27985;SDS011;15453;53.692;10.168;2023-05-25T01:49:24;13.48;;;5.47;;
27985;SDS011;15453;53.692;10.168;2023-05-25T01:52:11;11.60;;;4.50;;
27985;SDS011;15453;53.692;10.168;2023-05-25T01:54:43;14.02;;;4.70;;
27985;SDS011;15453;53.692;10.168;2023-05-25T01:57:12;13.45;;;4.93;;
27985;SDS011;15453;53.692;10.168;2023-05-25T01:59:42;9.30;;;5.03;;
27985;SDS011;15453;53.692;10.168;2023-05-25T02:02:09;12.73;;;5.05;;
27985;SDS011;15453;53.692;10.168;2023-05-25T02:04:37;12.73;;;5.22;;
27985;SDS011;15453;53.692;10.168;2023-05-25T02:07:03;16.48;;;6.38;;
27985;SDS011;15453;53.692;10.168;2023-05-25T02:09:29;15.43;;;5.72;;
27985;SDS011;15453;53.692;10.168;2023-05-25T02:11:54;11.98;;;6.10;;
27985;SDS011;15453;53.692;10.168;2023-05-25T02:14:19;13.48;;;5.78;;
27985;SDS011;15453;53.692;10.168;2023-05-25T02:16:44;13.32;;;5.43;;
27985;SDS011;15453;53.692;10.168;2023-05-25T02:19:10;12.45;;;6.32;;
27985;SDS011;15453;53.692;10.168;2023-05-25T02:21:38;16.70;;;5.72;;
27985;SDS011;15453;53.692;10.168;2023-05-25T02:24:04;10.25;;;5.60;;
27985;SDS011;15453;53.692;10.168;2023-05-25T02:26:30;14.25;;;6.28;;
27985;SDS011;15453;53.692;10.168;2023-05-25T02:28:55;13.20;;;6.28;;
27985;SDS011;15453;53.692;10.168;2023-05-25T02:31:20;11.05;;;6.05;;
27985;SDS011;15453;53.692;10.168;2023-05-25T02:33:46;13.93;;;5.90;;
27985;SDS011;15453;53.692;10.168;2023-05-25T02:36:11;11.10;;;5.80;;
27985;SDS011;15453;53.692;10.168;2023-05-25T02:38:36;20.05;;;6.10;;
27985;SDS011;15453;53.692;10.168;2023-05-25T02:41:02;13.23;;;5.63;;
27985;SDS011;15453;53.692;10.168;2023-05-25T02:43:27;15.25;;;5.60;;
27985;SDS011;15453;53.692;10.168;2023-05-25T02:45:52;16.42;;;6.32;;
27985;SDS011;15453;53.692;10.168;2023-05-25T02:48:17;13.20;;;6.10;;
27985;SDS011;15453;53.692;10.168;2023-05-25T02:50:43;14.05;;;6.70;;
27985;SDS011;15453;53.692;10.168;2023-05-25T02:53:08;13.95;;;6.68;;
27985;SDS011;15453;53.692;10.168;2023-05-25T02:55:33;15.38;;;6.60;;
27985;SDS011;15453;53.692;10.168;2023-05-25T02:57:58;14.85;;;6.35;;
27985;SDS011;15453;53.692;10.168;2023-05-25T03:00:24;11.98;;;6.20;;
27985;SDS011;15453;53.692;10.168;2023-05-25T03:02:50;16.60;;;6.65;;
27985;SDS011;15453;53.692;10.168;2023-05-25T03:05:16;12.80;;;6.60;;
27985;SDS011;15453;53.692;10.168;2023-05-25T03:07:41;14.27;;;6.85;;
27985;SDS011;15453;53.692;10.168;2023-05-25T03:10:07;12.75;;;6.22;;
27985;SDS011;15453;53.692;10.168;2023-05-25T03:12:33;21.65;;;6.78;;
27985;SDS011;15453;53.692;10.168;2023-05-25T03:14:58;14.10;;;6.68;;
27985;SDS011;15453;53.692;10.168;2023-05-25T03:17:23;19.10;;;6.10;;
27985;SDS011;15453;53.692;10.168;2023-05-25T03:19:49;14.98;;;6.93;;
27985;SDS011;15453;53.692;10.168;2023-05-25T03:22:14;15.75;;;6.88;;
27985;SDS011;15453;53.692;10.168;2023-05-25T03:24:39;14.63;;;6.65;;
27985;SDS011;15453;53.692;10.168;2023-05-25T03:27:05;13.50;;;6.68;;
27985;SDS011;15453;53.692;10.168;2023-05-25T03:29:32;18.98;;;6.82;;
27985;SDS011;15453;53.692;10.168;2023-05-25T03:31:57;16.45;;;7.07;;
27985;SDS011;15453;53.692;10.168;2023-05-25T03:34:22;21.30;;;7.22;;
27985;SDS011;15453;53.692;10.168;2023-05-25T03:36:48;14.00;;;6.43;;
27985;SDS011;15453;53.692;10.168;2023-05-25T03:39:14;16.45;;;7.15;;
27985;SDS011;15453;53.692;10.168;2023-05-25T03:41:39;19.15;;;7.20;;
27985;SDS011;15453;53.692;10.168;2023-05-25T03:44:05;16.65;;;7.13;;
27985;SDS011;15453;53.692;10.168;2023-05-25T03:46:30;15.52;;;6.28;;
27985;SDS011;15453;53.692;10.168;2023-05-25T03:48:55;12.85;;;6.38;;
27985;SDS011;15453;53.692;10.168;2023-05-25T03:51:20;14.50;;;6.45;;
27985;SDS011;15453;53.692;10.168;2023-05-25T03:53:46;18.90;;;6.45;;
27985;SDS011;15453;53.692;10.168;2023-05-25T03:56:11;20.00;;;7.25;;
27985;SDS011;15453;53.692;10.168;2023-05-25T03:58:36;20.50;;;7.50;;
27985;SDS011;15453;53.692;10.168;2023-05-25T04:01:01;16.90;;;6.85;;
27985;SDS011;15453;53.692;10.168;2023-05-25T04:03:27;16.65;;;6.43;;
27985;SDS011;15453;53.692;10.168;2023-05-25T04:05:52;15.32;;;6.15;;
27985;SDS011;15453;53.692;10.168;2023-05-25T04:08:17;14.55;;;6.60;;
27985;SDS011;15453;53.692;10.168;2023-05-25T04:10:44;15.23;;;5.32;;
27985;SDS011;15453;53.692;10.168;2023-05-25T04:13:10;19.60;;;7.22;;
27985;SDS011;15453;53.692;10.168;2023-05-25T04:15:35;15.65;;;6.60;;
27985;SDS011;15453;53.692;10.168;2023-05-25T04:18:01;20.35;;;6.35;;
27985;SDS011;15453;53.692;10.168;2023-05-25T04:20:28;16.63;;;6.00;;
27985;SDS011;15453;53.692;10.168;2023-05-25T04:22:53;13.80;;;5.78;;
27985;SDS011;15453;53.692;10.168;2023-05-25T04:25:19;15.02;;;5.97;;
27985;SDS011;15453;53.692;10.168;2023-05-25T04:27:45;14.35;;;5.78;;
27985;SDS011;15453;53.692;10.168;2023-05-25T04:30:10;16.33;;;5.70;;
27985;SDS011;15453;53.692;10.168;2023-05-25T04:32:36;15.50;;;4.82;;
27985;SDS011;15453;53.692;10.168;2023-05-25T04:35:01;15.88;;;5.78;;
27985;SDS011;15453;53.692;10.168;2023-05-25T04:37:27;17.95;;;6.97;;
27985;SDS011;15453;53.692;10.168;2023-05-25T04:39:52;15.00;;;5.30;;
27985;SDS011;15453;53.692;10.168;2023-05-25T04:42:18;14.00;;;5.70;;
27985;SDS011;15453;53.692;10.168;2023-05-25T04:44:43;12.13;;;4.97;;
27985;SDS011;15453;53.692;10.168;2023-05-25T04:47:08;13.50;;;5.68;;
27985;SDS011;15453;53.692;10.168;2023-05-25T04:49:34;13.85;;;5.68;;
27985;SDS011;15453;53.692;10.168;2023-05-25T04:52:00;10.82;;;5.07;;
27985;SDS011;15453;53.692;10.168;2023-05-25T04:54:25;18.33;;;6.25;;
27985;SDS011;15453;53.692;10.168;2023-05-25T04:56:50;17.35;;;5.85;;
27985;SDS011;15453;53.692;10.168;2023-05-25T04:59:16;13.25;;;5.28;;
27985;SDS011;15453;53.692;10.168;2023-05-25T05:01:41;12.27;;;5.00;;
27985;SDS011;15453;53.692;10.168;2023-05-25T05:04:08;11.63;;;4.80;;
27985;SDS011;15453;53.692;10.168;2023-05-25T05:06:33;11.48;;;4.60;;
27985;SDS011;15453;53.692;10.168;2023-05-25T05:08:59;13.20;;;5.25;;
27985;SDS011;15453;53.692;10.168;2023-05-25T05:11:25;15.20;;;5.15;;
27985;SDS011;15453;53.692;10.168;2023-05-25T05:13:52;9.95;;;4.15;;
27985;SDS011;15453;53.692;10.168;2023-05-25T05:16:17;11.35;;;4.90;;
27985;SDS011;15453;53.692;10.168;2023-05-25T05:18:42;12.25;;;4.80;;
27985;SDS011;15453;53.692;10.168;2023-05-25T05:21:08;13.57;;;5.35;;
27985;SDS011;15453;53.692;10.168;2023-05-25T05:23:33;13.05;;;4.78;;
27985;SDS011;15453;53.692;10.168;2023-05-25T05:25:58;11.00;;;5.00;;
27985;SDS011;15453;53.692;10.168;2023-05-25T05:28:24;16.52;;;5.22;;
27985;SDS011;15453;53.692;10.168;2023-05-25T05:30:51;19.17;;;5.55;;
27985;SDS011;15453;53.692;10.168;2023-05-25T05:33:17;13.80;;;4.88;;
27985;SDS011;15453;53.692;10.168;2023-05-25T05:35:42;14.40;;;5.28;;
27985;SDS011;15453;53.692;10.168;2023-05-25T05:38:08;15.82;;;4.55;;
27985;SDS011;15453;53.692;10.168;2023-05-25T05:40:33;15.30;;;4.90;;
27985;SDS011;15453;53.692;10.168;2023-05-25T05:42:59;18.77;;;5.15;;
27985;SDS011;15453;53.692;10.168;2023-05-25T05:45:24;14.82;;;4.53;;
27985;SDS011;15453;53.692;10.168;2023-05-25T05:47:49;13.73;;;4.78;;
27985;SDS011;15453;53.692;10.168;2023-05-25T05:50:14;13.82;;;5.13;;
27985;SDS011;15453;53.692;10.168;2023-05-25T05:52:40;13.68;;;4.43;;
27985;SDS011;15453;53.692;10.168;2023-05-25T05:55:05;20.15;;;5.22;;
27985;SDS011;15453;53.692;10.168;2023-05-25T05:57:31;16.73;;;4.68;;
27985;SDS011;15453;53.692;10.168;2023-05-25T05:59:57;16.48;;;4.93;;
27985;SDS011;15453;53.692;10.168;2023-05-25T06:02:22;15.65;;;4.72;;
27985;SDS011;15453;53.692;10.168;2023-05-25T06:04:47;14.68;;;4.97;;
27985;SDS011;15453;53.692;10.168;2023-05-25T06:07:12;18.65;;;4.72;;
27985;SDS011;15453;53.692;10.168;2023-05-25T06:09:38;15.30;;;4.40;;
27985;SDS011;15453;53.692;10.168;2023-05-25T06:12:04;18.25;;;4.80;;
27985;SDS011;15453;53.692;10.168;2023-05-25T06:14:30;16.55;;;4.40;;
27985;SDS011;15453;53.692;10.168;2023-05-25T06:16:55;13.82;;;4.65;;
27985;SDS011;15453;53.692;10.168;2023-05-25T06:19:20;14.40;;;4.18;;
27985;SDS011;15453;53.692;10.168;2023-05-25T06:21:46;16.08;;;4.70;;
27985;SDS011;15453;53.692;10.168;2023-05-25T06:24:13;13.07;;;3.85;;
27985;SDS011;15453;53.692;10.168;2023-05-25T06:26:39;19.42;;;4.97;;
27985;SDS011;15453;53.692;10.168;2023-05-25T06:29:04;21.38;;;4.50;;
27985;SDS011;15453;53.692;10.168;2023-05-25T06:31:30;22.98;;;5.60;;
27985;SDS011;15453;53.692;10.168;2023-05-25T06:33:55;18.17;;;4.28;;
27985;SDS011;15453;53.692;10.168;2023-05-25T06:36:20;33.45;;;5.93;;
27985;SDS011;15453;53.692;10.168;2023-05-25T06:38:45;16.35;;;4.22;;
27985;SDS011;15453;53.692;10.168;2023-05-25T06:41:11;18.90;;;4.40;;
27985;SDS011;15453;53.692;10.168;2023-05-25T06:43:38;22.90;;;4.70;;
27985;SDS011;15453;53.692;10.168;2023-05-25T06:46:04;22.63;;;4.40;;
27985;SDS011;15453;53.692;10.168;2023-05-25T06:48:29;17.63;;;4.57;;
27985;SDS011;15453;53.692;10.168;2023-05-25T06:50:55;17.75;;;4.50;;
27985;SDS011;15453;53.692;10.168;2023-05-25T06:53:20;20.48;;;4.88;;
27985;SDS011;15453;53.692;10.168;2023-05-25T06:55:45;23.27;;;5.72;;
27985;SDS011;15453;53.692;10.168;2023-05-25T06:58:10;22.20;;;5.40;;
27985;SDS011;15453;53.692;10.168;2023-05-25T07:00:36;24.35;;;4.55;;
27985;SDS011;15453;53.692;10.168;2023-05-25T07:03:01;18.60;;;4.72;;
27985;SDS011;15453;53.692;10.168;2023-05-25T07:05:26;19.90;;;4.75;;
27985;SDS011;15453;53.692;10.168;2023-05-25T07:07:52;24.63;;;5.22;;
27985;SDS011;15453;53.692;10.168;2023-05-25T07:10:17;20.98;;;5.35;;
27985;SDS011;15453;53.692;10.168;2023-05-25T07:12:42;23.63;;;4.70;;
27985;SDS011;15453;53.692;10.168;2023-05-25T07:15:08;18.98;;;4.38;;
27985;SDS011;15453;53.692;10.168;2023-05-25T07:17:34;20.45;;;5.45;;
27985;SDS011;15453;53.692;10.168;2023-05-25T07:20:00;17.65;;;4.40;;
27985;SDS011;15453;53.692;10.168;2023-05-25T07:22:25;19.38;;;4.82;;
27985;SDS011;15453;53.692;10.168;2023-05-25T07:24:51;20.40;;;4.68;;
27985;SDS011;15453;53.692;10.168;2023-05-25T07:27:16;25.88;;;5.30;;
27985;SDS011;15453;53.692;10.168;2023-05-25T07:29:43;22.70;;;5.70;;
27985;SDS011;15453;53.692;10.168;2023-05-25T07:32:08;24.17;;;5.68;;
27985;SDS011;15453;53.692;10.168;2023-05-25T07:34:34;17.45;;;4.20;;
27985;SDS011;15453;53.692;10.168;2023-05-25T07:36:59;24.63;;;5.28;;
27985;SDS011;15453;53.692;10.168;2023-05-25T07:39:24;26.63;;;5.93;;
27985;SDS011;15453;53.692;10.168;2023-05-25T07:41:49;19.92;;;4.68;;
27985;SDS011;15453;53.692;10.168;2023-05-25T07:44:15;22.27;;;5.28;;
27985;SDS011;15453;53.692;10.168;2023-05-25T07:46:41;21.38;;;5.47;;
27985;SDS011;15453;53.692;10.168;2023-05-25T07:49:06;19.75;;;5.47;;
27985;SDS011;15453;53.692;10.168;2023-05-25T07:51:37;23.58;;;5.38;;
27985;SDS011;15453;53.692;10.168;2023-05-25T07:54:02;22.08;;;5.43;;
27985;SDS011;15453;53.692;10.168;2023-05-25T07:56:27;19.55;;;4.95;;
27985;SDS011;15453;53.692;10.168;2023-05-25T07:58:52;27.08;;;4.90;;
27985;SDS011;15453;53.692;10.168;2023-05-25T08:01:18;27.00;;;5.68;;
27985;SDS011;15453;53.692;10.168;2023-05-25T08:03:43;24.02;;;5.32;;
27985;SDS011;15453;53.692;10.168;2023-05-25T08:06:09;19.95;;;5.53;;
27985;SDS011;15453;53.692;10.168;2023-05-25T08:08:34;23.67;;;5.50;;
27985;SDS011;15453;53.692;10.168;2023-05-25T08:11:00;15.45;;;4.10;;
27985;SDS011;15453;53.692;10.168;2023-05-25T08:13:25;22.52;;;5.32;;
27985;SDS011;15453;53.692;10.168;2023-05-25T08:15:51;20.63;;;5.43;;
27985;SDS011;15453;53.692;10.168;2023-05-25T08:18:16;18.48;;;4.45;;
27985;SDS011;15453;53.692;10.168;2023-05-25T08:20:43;21.52;;;5.18;;
27985;SDS011;15453;53.692;10.168;2023-05-25T08:23:08;18.02;;;4.50;;
27985;SDS011;15453;53.692;10.168;2023-05-25T08:25:33;19.38;;;4.80;;
27985;SDS011;15453;53.692;10.168;2023-05-25T08:27:59;21.15;;;4.40;;
27985;SDS011;15453;53.692;10.168;2023-05-25T08:30:24;23.65;;;5.43;;
27985;SDS011;15453;53.692;10.168;2023-05-25T08:32:49;16.67;;;4.50;;
27985;SDS011;15453;53.692;10.168;2023-05-25T08:35:14;17.98;;;4.20;;
27985;SDS011;15453;53.692;10.168;2023-05-25T08:37:41;17.08;;;4.40;;
27985;SDS011;15453;53.692;10.168;2023-05-25T08:40:07;25.85;;;5.80;;
27985;SDS011;15453;53.692;10.168;2023-05-25T08:42:40;18.92;;;4.70;;
27985;SDS011;15453;53.692;10.168;2023-05-25T08:45:06;20.15;;;4.57;;
27985;SDS011;15453;53.692;10.168;2023-05-25T08:47:33;20.58;;;5.28;;
27985;SDS011;15453;53.692;10.168;2023-05-25T08:50:04;23.58;;;5.90;;
27985;SDS011;15453;53.692;10.168;2023-05-25T08:52:32;25.60;;;6.43;;
27985;SDS011;15453;53.692;10.168;2023-05-25T08:55:01;19.17;;;5.18;;
27985;SDS011;15453;53.692;10.168;2023-05-25T08:57:45;25.65;;;5.03;;
27985;SDS011;15453;53.692;10.168;2023-05-25T09:00:16;24.10;;;4.97;;
27985;SDS011;15453;53.692;10.168;2023-05-25T09:05:21;22.25;;;5.78;;
27985;SDS011;15453;53.692;10.168;2023-05-25T09:07:47;22.10;;;4.93;;
27985;SDS011;15453;53.692;10.168;2023-05-25T09:10:15;17.63;;;4.43;;
27985;SDS011;15453;53.692;10.168;2023-05-25T09:12:41;16.77;;;4.75;;
27985;SDS011;15453;53.692;10.168;2023-05-25T09:15:10;21.55;;;5.03;;
27985;SDS011;15453;53.692;10.168;2023-05-25T09:17:36;20.77;;;5.40;;
27985;SDS011;15453;53.692;10.168;2023-05-25T09:20:01;22.55;;;5.20;;
27985;SDS011;15453;53.692;10.168;2023-05-25T09:22:27;24.55;;;5.55;;
27985;SDS011;15453;53.692;10.168;2023-05-25T09:24:52;22.92;;;4.97;;
27985;SDS011;15453;53.692;10.168;2023-05-25T09:27:19;19.73;;;4.90;;
27985;SDS011;15453;53.692;10.168;2023-05-25T09:29:47;19.38;;;5.10;;
27985;SDS011;15453;53.692;10.168;2023-05-25T09:32:13;16.15;;;4.40;;
27985;SDS011;15453;53.692;10.168;2023-05-25T09:34:41;17.63;;;4.95;;
27985;SDS011;15453;53.692;10.168;2023-05-25T09:37:10;21.63;;;5.28;;
27985;SDS011;15453;53.692;10.168;2023-05-25T09:39:38;20.73;;;4.80;;
27985;SDS011;15453;53.692;10.168;2023-05-25T09:42:05;23.95;;;5.57;;
27985;SDS011;15453;53.692;10.168;2023-05-25T09:44:30;18.60;;;4.30;;
27985;SDS011;15453;53.692;10.168;2023-05-25T09:46:55;22.13;;;6.07;;
27985;SDS011;15453;53.692;10.168;2023-05-25T09:49:21;19.33;;;5.05;;
27985;SDS011;15453;53.692;10.168;2023-05-25T09:51:46;18.60;;;5.50;;
27985;SDS011;15453;53.692;10.168;2023-05-25T09:54:11;19.55;;;4.97;;
27985;SDS011;15453;53.692;10.168;2023-05-25T09:56:37;19.73;;;5.45;;
27985;SDS011;15453;53.692;10.168;2023-05-25T09:59:02;19.02;;;5.07;;
27985;SDS011;15453;53.692;10.168;2023-05-25T10:01:27;20.38;;;4.88;;
27985;SDS011;15453;53.692;10.168;2023-05-25T10:03:53;22.35;;;5.80;;
27985;SDS011;15453;53.692;10.168;2023-05-25T10:06:21;20.02;;;4.88;;
27985;SDS011;15453;53.692;10.168;2023-05-25T10:08:47;23.55;;;5.30;;
27985;SDS011;15453;53.692;10.168;2023-05-25T10:11:13;20.98;;;5.18;;
27985;SDS011;15453;53.692;10.168;2023-05-25T10:13:39;17.92;;;4.93;;
27985;SDS011;15453;53.692;10.168;2023-05-25T10:16:08;22.00;;;5.05;;
27985;SDS011;15453;53.692;10.168;2023-05-25T10:18:38;22.77;;;5.03;;
27985;SDS011;15453;53.692;10.168;2023-05-25T10:21:07;25.88;;;5.88;;
27985;SDS011;15453;53.692;10.168;2023-05-25T10:23:34;24.92;;;5.80;;
27985;SDS011;15453;53.692;10.168;2023-05-25T10:26:05;26.20;;;6.13;;
27985;SDS011;15453;53.692;10.168;2023-05-25T10:28:36;22.83;;;5.07;;
27985;SDS011;15453;53.692;10.168;2023-05-25T10:31:03;22.77;;;5.93;;
27985;SDS011;15453;53.692;10.168;2023-05-25T10:33:31;26.33;;;5.80;;
27985;SDS011;15453;53.692;10.168;2023-05-25T10:35:57;20.35;;;4.80;;
27985;SDS011;15453;53.692;10.168;2023-05-25T10:38:23;20.15;;;5.30;;
27985;SDS011;15453;53.692;10.168;2023-05-25T10:40:50;20.48;;;5.35;;
27985;SDS011;15453;53.692;10.168;2023-05-25T10:43:18;22.02;;;5.30;;
27985;SDS011;15453;53.692;10.168;2023-05-25T10:45:44;23.88;;;5.88;;
27985;SDS011;15453;53.692;10.168;2023-05-25T10:48:11;15.82;;;4.85;;
27985;SDS011;15453;53.692;10.168;2023-05-25T10:50:36;20.60;;;4.80;;
27985;SDS011;15453;53.692;10.168;2023-05-25T10:53:04;17.33;;;4.95;;
27985;SDS011;15453;53.692;10.168;2023-05-25T10:58:15;18.13;;;4.55;;
27985;SDS011;15453;53.692;10.168;2023-05-25T11:00:42;23.02;;;5.82;;
27985;SDS011;15453;53.692;10.168;2023-05-25T11:03:20;15.55;;;4.50;;
27985;SDS011;15453;53.692;10.168;2023-05-25T11:05:48;14.63;;;4.78;;
27985;SDS011;15453;53.692;10.168;2023-05-25T11:08:14;20.10;;;5.13;;
27985;SDS011;15453;53.692;10.168;2023-05-25T11:18:54;20.50;;;5.10;;
27985;SDS011;15453;53.692;10.168;2023-05-25T11:26:22;20.77;;;5.80;;
27985;SDS011;15453;53.692;10.168;2023-05-25T11:28:50;20.58;;;5.18;;
27985;SDS011;15453;53.692;10.168;2023-05-25T11:31:18;18.90;;;5.07;;
27985;SDS011;15453;53.692;10.168;2023-05-25T11:33:47;21.27;;;5.28;;
27985;SDS011;15453;53.692;10.168;2023-05-25T11:36:12;21.33;;;5.43;;
27985;SDS011;15453;53.692;10.168;2023-05-25T11:38:40;19.08;;;5.75;;
27985;SDS011;15453;53.692;10.168;2023-05-25T11:41:19;19.15;;;4.97;;
27985;SDS011;15453;53.692;10.168;2023-05-25T11:43:47;17.65;;;4.72;;
27985;SDS011;15453;53.692;10.168;2023-05-25T11:46:14;25.40;;;5.72;;
27985;SDS011;15453;53.692;10.168;2023-05-25T11:48:43;19.92;;;5.60;;
27985;SDS011;15453;53.692;10.168;2023-05-25T11:51:22;18.52;;;5.43;;
27985;SDS011;15453;53.692;10.168;2023-05-25T11:53:48;18.70;;;5.25;;
27985;SDS011;15453;53.692;10.168;2023-05-25T11:56:15;21.35;;;5.32;;
27985;SDS011;15453;53.692;10.168;2023-05-25T11:58:41;20.85;;;5.18;;
27985;SDS011;15453;53.692;10.168;2023-05-25T12:03:40;26.50;;;5.50;;
27985;SDS011;15453;53.692;10.168;2023-05-25T12:06:05;23.35;;;5.45;;
27985;SDS011;15453;53.692;10.168;2023-05-25T12:08:34;22.98;;;5.70;;
27985;SDS011;15453;53.692;10.168;2023-05-25T12:11:00;19.23;;;5.22;;
27985;SDS011;15453;53.692;10.168;2023-05-25T12:13:26;17.65;;;5.07;;
27985;SDS011;15453;53.692;10.168;2023-05-25T12:15:55;22.33;;;5.70;;
27985;SDS011;15453;53.692;10.168;2023-05-25T12:18:25;18.90;;;5.30;;
27985;SDS011;15453;53.692;10.168;2023-05-25T12:20:52;21.17;;;5.65;;
27985;SDS011;15453;53.692;10.168;2023-05-25T12:23:18;18.08;;;5.70;;
27985;SDS011;15453;53.692;10.168;2023-05-25T12:25:43;17.13;;;4.97;;
27985;SDS011;15453;53.692;10.168;2023-05-25T12:28:12;19.60;;;5.50;;
27985;SDS011;15453;53.692;10.168;2023-05-25T12:30:38;14.82;;;4.85;;
27985;SDS011;15453;53.692;10.168;2023-05-25T12:33:04;17.10;;;5.22;;
27985;SDS011;15453;53.692;10.168;2023-05-25T12:35:30;17.35;;;5.55;;
27985;SDS011;15453;53.692;10.168;2023-05-25T12:38:12;13.00;;;4.30;;
27985;SDS011;15453;53.692;10.168;2023-05-25T12:40:39;17.58;;;5.28;;
27985;SDS011;15453;53.692;10.168;2023-05-25T12:43:05;17.58;;;4.55;;
27985;SDS011;15453;53.692;10.168;2023-05-25T12:45:30;20.83;;;5.18;;
27985;SDS011;15453;53.692;10.168;2023-05-25T12:47:56;16.83;;;4.97;;
27985;SDS011;15453;53.692;10.168;2023-05-25T12:50:21;18.58;;;4.85;;
27985;SDS011;15453;53.692;10.168;2023-05-25T12:52:46;14.25;;;4.30;;
27985;SDS011;15453;53.692;10.168;2023-05-25T12:57:54;20.95;;;5.55;;
27985;SDS011;15453;53.692;10.168;2023-05-25T13:00:22;19.67;;;5.70;;
27985;SDS011;15453;53.692;10.168;2023-05-25T13:02:49;20.90;;;5.43;;
27985;SDS011;15453;53.692;10.168;2023-05-25T13:05:19;22.20;;;5.72;;
27985;SDS011;15453;53.692;10.168;2023-05-25T13:07:46;18.63;;;5.25;;
27985;SDS011;15453;53.692;10.168;2023-05-25T13:10:11;16.20;;;4.82;;
27985;SDS011;15453;53.692;10.168;2023-05-25T13:12:37;16.00;;;4.95;;
27985;SDS011;15453;53.692;10.168;2023-05-25T13:15:03;16.15;;;5.28;;
27985;SDS011;15453;53.692;10.168;2023-05-25T13:17:30;21.35;;;7.15;;
27985;SDS011;15453;53.692;10.168;2023-05-25T13:19:55;18.42;;;5.10;;
27985;SDS011;15453;53.692;10.168;2023-05-25T13:22:20;15.63;;;4.93;;
27985;SDS011;15453;53.692;10.168;2023-05-25T13:24:45;16.77;;;5.00;;
27985;SDS011;15453;53.692;10.168;2023-05-25T13:27:10;22.03;;;5.97;;
27985;SDS011;15453;53.692;10.168;2023-05-25T13:29:36;20.25;;;5.70;;
27985;SDS011;15453;53.692;10.168;2023-05-25T13:32:01;17.43;;;5.70;;
27985;SDS011;15453;53.692;10.168;2023-05-25T13:34:26;17.80;;;5.50;;
27985;SDS011;15453;53.692;10.168;2023-05-25T13:36:52;18.07;;;5.57;;
27985;SDS011;15453;53.692;10.168;2023-05-25T13:39:17;20.93;;;5.23;;
27985;SDS011;15453;53.692;10.168;2023-05-25T13:41:42;17.77;;;5.80;;
27985;SDS011;15453;53.692;10.168;2023-05-25T13:44:07;18.92;;;5.40;;
27985;SDS011;15453;53.692;10.168;2023-05-25T13:46:35;14.77;;;5.00;;
27985;SDS011;15453;53.692;10.168;2023-05-25T13:49:01;18.17;;;5.38;;
27985;SDS011;15453;53.692;10.168;2023-05-25T13:51:27;18.63;;;5.22;;
27985;SDS011;15453;53.692;10.168;2023-05-25T13:53:52;17.48;;;5.03;;
27985;SDS011;15453;53.692;10.168;2023-05-25T13:56:18;16.23;;;5.30;;
27985;SDS011;15453;53.692;10.168;2023-05-25T13:58:43;15.68;;;5.10;;
27985;SDS011;15453;53.692;10.168;2023-05-25T14:01:08;17.95;;;5.70;;
27985;SDS011;15453;53.692;10.168;2023-05-25T14:03:34;16.23;;;4.60;;
27985;SDS011;15453;53.692;10.168;2023-05-25T14:06:01;15.57;;;4.55;;
27985;SDS011;15453;53.692;10.168;2023-05-25T14:08:26;22.40;;;5.78;;
27985;SDS011;15453;53.692;10.168;2023-05-25T14:10:52;17.15;;;5.18;;
27985;SDS011;15453;53.692;10.168;2023-05-25T14:13:17;18.45;;;5.05;;
27985;SDS011;15453;53.692;10.168;2023-05-25T14:15:43;14.35;;;4.22;;
27985;SDS011;15453;53.692;10.168;2023-05-25T14:18:08;15.57;;;5.13;;
27985;SDS011;15453;53.692;10.168;2023-05-25T14:20:33;12.85;;;4.68;;
27985;SDS011;15453;53.692;10.168;2023-05-25T14:23:01;16.55;;;4.80;;
27985;SDS011;15453;53.692;10.168;2023-05-25T14:25:26;16.50;;;5.22;;
27985;SDS011;15453;53.692;10.168;2023-05-25T14:27:51;20.45;;;5.20;;
27985;SDS011;15453;53.692;10.168;2023-05-25T14:30:17;16.58;;;4.97;;
27985;SDS011;15453;53.692;10.168;2023-05-25T14:32:42;15.15;;;5.03;;
27985;SDS011;15453;53.692;10.168;2023-05-25T14:35:07;13.55;;;4.63;;
27985;SDS011;15453;53.692;10.168;2023-05-25T14:37:33;15.75;;;4.85;;
27985;SDS011;15453;53.692;10.168;2023-05-25T14:39:58;15.82;;;4.75;;
27985;SDS011;15453;53.692;10.168;2023-05-25T14:42:24;18.73;;;5.22;;